Big Rapids, Michigan
Current Conditions -  °F | °C
As of 7:34 AM on Sunday 21 Dec 2014 (Local Time) from KRQB Reporting Station
Haze Haze  
Wind Chill: 25°   Ceiling: 300
Heat Index: 30°   Visibility: 2mi
Dew Point: 30°   Wind: 5mph
Humidity: 100%   Direction: 160°SSE
Pressure: 30.21"   Gusts: NA
Location:  43.7°N, 85.48°W
Report Text: KRQB 211234Z AUTO 16004KT 2SM BR OVC003 M01/M01 A3021 RMK AO2 T10101010
Loading
Personal Weather Stations






























Interactive Weather Map New forecast layout! Learn more

10-Day Weather Forecast

Advertisements
Track Severe Weather on mobile